createdAt,value
2023-03-07T00:00:42.342Z,1.80
2023-03-07T00:03:31.998Z,2.03
2023-03-07T00:06:21.531Z,1.90
2023-03-07T00:09:11.490Z,1.70
2023-03-07T00:12:00.858Z,1.80
2023-03-07T00:14:50.159Z,2.13
2023-03-07T00:17:40.617Z,1.60
2023-03-07T00:20:30.342Z,1.85
2023-03-07T00:23:19.777Z,1.90
2023-03-07T00:26:19.058Z,1.80
2023-03-07T00:29:10.468Z,1.77
2023-03-07T00:31:59.814Z,2.15
2023-03-07T00:34:49.025Z,1.85
2023-03-07T00:37:38.445Z,1.90
2023-03-07T00:40:29.500Z,1.90
2023-03-07T00:43:18.781Z,2.08
2023-03-07T00:46:09.388Z,1.80
2023-03-07T00:48:59.187Z,1.80
2023-03-07T00:51:48.401Z,1.60
2023-03-07T00:54:37.945Z,2.00
2023-03-07T00:57:27.321Z,1.77
2023-03-07T01:00:16.716Z,1.60
2023-03-07T01:03:06.140Z,1.70
2023-03-07T01:05:56.740Z,1.77
2023-03-07T01:08:46.373Z,2.00
2023-03-07T01:11:38.389Z,1.90
2023-03-07T01:14:27.758Z,2.10
2023-03-07T01:17:17.100Z,2.40
2023-03-07T01:20:10.253Z,2.10
2023-03-07T01:22:59.813Z,2.30
2023-03-07T01:25:49.489Z,2.10
2023-03-07T01:28:39.762Z,2.10
2023-03-07T01:31:31.391Z,2.20
2023-03-07T01:34:21.640Z,2.15
2023-03-07T01:37:13.694Z,2.20
2023-03-07T01:40:03.184Z,2.10
2023-03-07T01:42:54.234Z,2.13
2023-03-07T01:45:51.503Z,1.95
2023-03-07T01:48:41.820Z,2.13
2023-03-07T01:51:31.619Z,2.20
2023-03-07T01:54:25.509Z,2.37
2023-03-07T01:57:18.800Z,2.28
2023-03-07T02:00:12.404Z,2.15
2023-03-07T02:03:21.343Z,2.30
2023-03-07T02:06:13.128Z,1.98
2023-03-07T02:09:03.544Z,2.20
2023-03-07T02:11:54.005Z,3.85
2023-03-07T02:14:48.629Z,2.38
2023-03-07T02:17:38.817Z,2.70
2023-03-07T02:20:55.896Z,2.45
2023-03-07T02:24:07.145Z,2.53
2023-03-07T02:26:56.934Z,2.42
2023-03-07T02:29:46.452Z,2.60
2023-03-07T02:32:36.220Z,2.20
2023-03-07T02:35:27.187Z,2.35
2023-03-07T02:38:21.932Z,2.40
2023-03-07T02:41:13.925Z,2.63
2023-03-07T02:44:03.831Z,2.40
2023-03-07T02:46:53.720Z,2.50
2023-03-07T02:49:46.541Z,2.45
2023-03-07T02:52:36.281Z,2.42
2023-03-07T02:55:26.462Z,2.20
2023-03-07T02:58:22.746Z,2.40
2023-03-07T03:01:12.846Z,2.60
2023-03-07T03:04:02.574Z,2.40
2023-03-07T03:06:52.360Z,2.60
2023-03-07T03:09:41.936Z,2.28
2023-03-07T03:12:31.341Z,2.40
2023-03-07T03:15:21.636Z,2.35
2023-03-07T03:18:11.432Z,2.75
2023-03-07T03:21:00.958Z,2.70
2023-03-07T03:23:50.327Z,2.80
2023-03-07T03:26:40.398Z,2.17
2023-03-07T03:29:30.254Z,2.63
2023-03-07T03:32:23.429Z,2.75
2023-03-07T03:35:13.447Z,2.28
2023-03-07T03:38:03.007Z,2.30
2023-03-07T03:40:53.226Z,2.30
2023-03-07T03:43:42.830Z,2.45
2023-03-07T03:46:32.516Z,2.83
2023-03-07T03:49:22.766Z,2.92
2023-03-07T03:52:13.966Z,2.65
2023-03-07T03:55:03.576Z,2.78
2023-03-07T03:57:53.072Z,2.78
2023-03-07T04:00:42.399Z,2.50
2023-03-07T04:03:32.027Z,2.80
2023-03-07T04:06:25.245Z,2.50
2023-03-07T04:12:08.096Z,2.30
2023-03-07T04:14:57.701Z,2.35
2023-03-07T04:17:46.988Z,2.45
2023-03-07T04:20:37.257Z,2.63
2023-03-07T04:23:27.296Z,2.20
2023-03-07T04:26:17.343Z,2.50
2023-03-07T04:29:06.741Z,2.40
2023-03-07T04:32:03.884Z,2.45
2023-03-07T04:34:53.432Z,2.50
2023-03-07T04:37:42.993Z,2.45
2023-03-07T04:40:33.130Z,2.53
2023-03-07T04:43:22.924Z,2.50
2023-03-07T04:46:14.727Z,2.40
2023-03-07T04:49:04.075Z,2.45
2023-03-07T04:51:53.658Z,2.58
2023-03-07T04:54:43.342Z,2.67
2023-03-07T04:57:33.053Z,2.58
2023-03-07T05:00:23.169Z,3.20
2023-03-07T05:03:14.507Z,2.60
2023-03-07T05:06:09.379Z,2.45
2023-03-07T05:08:58.791Z,2.78
2023-03-07T05:11:48.518Z,2.60
2023-03-07T05:14:38.066Z,2.58
2023-03-07T05:17:27.621Z,2.40
2023-03-07T05:20:17.614Z,2.85
2023-03-07T05:23:07.301Z,2.90
2023-03-07T05:25:56.630Z,2.92
2023-03-07T05:28:48.165Z,2.75
2023-03-07T05:31:37.646Z,2.53
2023-03-07T05:34:28.670Z,2.30
2023-03-07T05:37:18.046Z,2.60
2023-03-07T05:40:11.496Z,2.92
2023-03-07T05:43:04.664Z,3.05
2023-03-07T05:45:54.660Z,2.78
2023-03-07T05:48:44.181Z,2.90
2023-03-07T05:51:33.673Z,2.90
2023-03-07T05:54:23.564Z,3.00
2023-03-07T05:57:13.349Z,3.00
2023-03-07T06:00:03.360Z,2.65
2023-03-07T06:03:05.962Z,3.00
2023-03-07T06:05:56.811Z,3.05
2023-03-07T06:08:46.372Z,2.90
2023-03-07T06:11:35.913Z,2.97
2023-03-07T06:14:25.920Z,2.75
2023-03-07T06:17:15.468Z,2.83
2023-03-07T06:20:05.165Z,2.70
2023-03-07T06:22:55.801Z,2.50
2023-03-07T06:25:45.292Z,3.05
2023-03-07T06:28:38.014Z,3.03
2023-03-07T06:31:27.530Z,3.10
2023-03-07T06:34:17.904Z,2.75
2023-03-07T06:37:08.457Z,3.08
2023-03-07T06:39:57.818Z,2.95
2023-03-07T06:42:47.189Z,2.92
2023-03-07T06:45:36.683Z,2.90
2023-03-07T06:48:26.328Z,2.63
2023-03-07T06:51:16.479Z,2.90
2023-03-07T06:54:07.347Z,2.75
2023-03-07T06:56:56.847Z,3.88
2023-03-07T06:59:46.786Z,2.80
2023-03-07T07:02:36.726Z,2.90
2023-03-07T07:05:26.896Z,2.80
2023-03-07T07:08:16.559Z,2.85
2023-03-07T07:11:06.452Z,3.03
2023-03-07T07:13:56.184Z,2.67
2023-03-07T07:16:45.995Z,2.90
2023-03-07T07:19:35.822Z,2.38
2023-03-07T07:22:25.569Z,3.42
2023-03-07T07:25:15.308Z,2.90
2023-03-07T07:28:04.604Z,2.90
2023-03-07T07:30:54.245Z,2.80
2023-03-07T07:33:43.757Z,3.25
2023-03-07T07:36:33.833Z,3.03
2023-03-07T07:39:25.370Z,2.67
2023-03-07T07:42:14.765Z,2.95
2023-03-07T07:45:17.305Z,2.90
2023-03-07T07:48:07.397Z,2.85
2023-03-07T07:51:02.128Z,2.75
2023-03-07T07:53:52.069Z,3.33
2023-03-07T07:56:42.187Z,2.88
2023-03-07T07:59:32.862Z,2.85
2023-03-07T08:02:23.233Z,2.90
2023-03-07T08:05:13.618Z,3.03
2023-03-07T08:08:02.902Z,2.92
2023-03-07T08:10:52.151Z,2.90
2023-03-07T08:13:41.466Z,2.88
2023-03-07T08:16:30.853Z,2.90
2023-03-07T08:19:20.103Z,2.67
2023-03-07T08:22:09.728Z,2.70
2023-03-07T08:24:58.942Z,3.22
2023-03-07T08:27:50.061Z,2.58
2023-03-07T08:30:39.328Z,3.00
2023-03-07T08:33:28.600Z,2.70
2023-03-07T08:36:18.389Z,2.88
2023-03-07T08:39:07.701Z,2.92
2023-03-07T08:41:57.842Z,2.90
2023-03-07T08:44:47.122Z,2.70
2023-03-07T08:47:36.362Z,2.97
2023-03-07T08:50:28.801Z,2.80
2023-03-07T08:53:18.342Z,2.97
2023-03-07T08:56:09.145Z,3.15
2023-03-07T08:58:58.369Z,2.90
2023-03-07T09:01:47.865Z,2.70
2023-03-07T09:04:37.241Z,2.70
2023-03-07T09:07:26.473Z,2.72
2023-03-07T09:10:16.182Z,3.38
2023-03-07T09:13:05.477Z,2.90
2023-03-07T09:15:55.241Z,3.05
2023-03-07T09:18:44.663Z,3.03
2023-03-07T09:21:34.370Z,3.00
2023-03-07T09:24:23.661Z,2.78
2023-03-07T09:27:12.994Z,2.78
2023-03-07T09:30:02.490Z,3.15
2023-03-07T09:32:52.013Z,2.85
2023-03-07T09:35:41.449Z,3.13
2023-03-07T09:38:30.764Z,2.88
2023-03-07T09:41:37.117Z,2.92
2023-03-07T09:44:34.822Z,2.80
2023-03-07T09:47:48.976Z,3.22
2023-03-07T09:50:58.537Z,2.60
2023-03-07T09:53:56.108Z,3.30
2023-03-07T09:56:56.963Z,2.40
2023-03-07T09:59:54.025Z,3.10
2023-03-07T10:02:57.067Z,2.80
2023-03-07T10:05:50.703Z,2.85
2023-03-07T10:08:40.050Z,2.90
2023-03-07T10:11:47.911Z,3.45
2023-03-07T10:15:05.724Z,2.80
2023-03-07T10:18:33.598Z,2.90
2023-03-07T10:21:41.534Z,2.70
2023-03-07T10:24:49.757Z,3.25
2023-03-07T10:27:40.223Z,2.75
2023-03-07T10:30:33.532Z,3.05
2023-03-07T10:33:22.822Z,2.80
2023-03-07T10:36:22.514Z,2.50
2023-03-07T10:39:32.629Z,2.75
2023-03-07T10:42:38.154Z,2.97
2023-03-07T10:45:31.787Z,2.53
2023-03-07T10:48:22.969Z,2.63
2023-03-07T10:51:37.622Z,2.60
2023-03-07T10:54:32.821Z,2.92
2023-03-07T10:57:28.358Z,2.88
2023-03-07T11:00:23.298Z,2.70
2023-03-07T11:03:31.194Z,2.60
2023-03-07T11:06:36.117Z,2.50
2023-03-07T11:09:31.656Z,3.22
2023-03-07T11:12:22.848Z,2.65
2023-03-07T11:15:19.605Z,2.60
2023-03-07T11:18:28.448Z,2.95
2023-03-07T11:21:35.761Z,2.65
2023-03-07T11:24:30.604Z,2.47
2023-03-07T11:27:35.528Z,2.90
2023-03-07T11:30:39.803Z,2.60
2023-03-07T11:34:29.193Z,2.78
2023-03-07T11:37:32.946Z,2.53
2023-03-07T11:44:09.911Z,2.65
2023-03-07T11:47:13.928Z,2.60
2023-03-07T11:50:18.302Z,2.63
2023-03-07T11:53:48.883Z,2.50
2023-03-07T11:56:43.088Z,2.60
2023-03-07T12:00:04.754Z,2.72
2023-03-07T12:03:38.419Z,2.78
2023-03-07T12:06:39.462Z,2.65
2023-03-07T12:09:50.601Z,2.65
2023-03-07T12:12:50.550Z,2.50
2023-03-07T12:16:01.805Z,2.78
2023-03-07T12:19:08.179Z,2.58
2023-03-07T12:22:20.277Z,2.70
2023-03-07T12:25:10.209Z,2.70
2023-03-07T12:28:12.768Z,3.00
2023-03-07T12:31:31.231Z,2.63
2023-03-07T12:34:47.643Z,2.92
2023-03-07T12:37:52.693Z,2.50
2023-03-07T12:40:46.316Z,2.58
2023-03-07T12:43:40.483Z,2.72
2023-03-07T12:46:41.924Z,2.60
2023-03-07T12:50:03.222Z,2.50
2023-03-07T12:52:55.475Z,2.60
2023-03-07T12:55:48.876Z,2.65
2023-03-07T12:59:05.855Z,2.85
2023-03-07T13:02:13.681Z,2.80
2023-03-07T13:05:03.370Z,2.53
2023-03-07T13:07:54.676Z,2.70
2023-03-07T13:10:47.164Z,2.50
2023-03-07T13:13:45.393Z,2.63
2023-03-07T13:16:39.780Z,2.78
2023-03-07T13:19:38.117Z,2.67
2023-03-07T13:22:27.353Z,2.88
2023-03-07T13:25:25.315Z,2.50
2023-03-07T13:28:42.072Z,2.80
2023-03-07T13:31:40.379Z,2.53
2023-03-07T13:34:52.330Z,2.58
2023-03-07T13:37:55.164Z,2.88
2023-03-07T13:40:50.244Z,3.07
2023-03-07T13:43:45.621Z,2.67
2023-03-07T13:46:44.020Z,2.60
2023-03-07T13:49:41.769Z,2.88
2023-03-07T13:52:36.587Z,2.67
2023-03-07T13:55:27.486Z,2.85
2023-03-07T13:58:22.586Z,2.97
2023-03-07T14:01:16.295Z,2.50
2023-03-07T14:04:45.799Z,2.85
2023-03-07T14:07:37.940Z,2.70
2023-03-07T14:10:31.545Z,2.70
2023-03-07T14:13:41.832Z,2.88
2023-03-07T14:16:52.368Z,2.70
2023-03-07T14:20:10.500Z,2.60
2023-03-07T14:23:15.237Z,2.50
2023-03-07T14:26:19.790Z,2.58
2023-03-07T14:29:23.939Z,2.60
2023-03-07T14:32:34.903Z,2.60
2023-03-07T14:35:42.664Z,2.65
2023-03-07T14:38:33.210Z,2.63
2023-03-07T14:41:47.828Z,2.65
2023-03-07T14:44:53.833Z,2.53
2023-03-07T14:48:18.112Z,2.30
2023-03-07T14:54:10.034Z,2.50
2023-03-07T14:57:00.419Z,2.50
2023-03-07T15:00:11.038Z,2.55
2023-03-07T15:03:03.186Z,2.50
2023-03-07T15:05:58.341Z,3.47
2023-03-07T15:08:49.771Z,2.50
2023-03-07T15:11:46.872Z,2.65
2023-03-07T15:14:47.749Z,2.72
2023-03-07T15:17:44.808Z,2.60
2023-03-07T15:20:34.922Z,2.33
2023-03-07T15:23:28.588Z,2.90
2023-03-07T15:29:14.533Z,2.50
2023-03-07T15:32:08.153Z,2.40
2023-03-07T15:35:03.648Z,2.80
2023-03-07T15:38:01.421Z,2.45
2023-03-07T15:40:51.411Z,2.60
2023-03-07T15:43:40.619Z,2.80
2023-03-07T15:46:31.947Z,3.03
2023-03-07T15:49:50.482Z,2.75
2023-03-07T15:52:40.676Z,2.47
2023-03-07T15:55:30.243Z,2.67
2023-03-07T15:58:19.616Z,2.53
2023-03-07T16:01:27.620Z,2.63
2023-03-07T16:04:37.744Z,2.80
2023-03-07T16:07:27.238Z,2.67
2023-03-07T16:10:16.860Z,2.33
2023-03-07T16:13:06.227Z,2.50
2023-03-07T16:16:04.683Z,2.55
2023-03-07T16:18:55.459Z,2.60
2023-03-07T16:21:45.020Z,2.33
2023-03-07T16:24:34.212Z,2.65
2023-03-07T16:27:26.524Z,2.50
2023-03-07T16:30:19.216Z,2.58
2023-03-07T16:33:14.646Z,2.50
2023-03-07T16:36:04.058Z,2.53
2023-03-07T16:38:53.421Z,2.33
2023-03-07T16:41:51.504Z,2.30
2023-03-07T16:44:41.824Z,2.53
2023-03-07T16:47:32.174Z,4.18
2023-03-07T16:50:27.698Z,2.35
2023-03-07T16:53:17.452Z,2.20
2023-03-07T16:56:07.052Z,2.72
2023-03-07T16:58:56.579Z,2.33
2023-03-07T17:01:48.980Z,2.63
2023-03-07T17:04:38.374Z,2.20
2023-03-07T17:07:28.095Z,2.45
2023-03-07T17:10:17.980Z,2.55
2023-03-07T17:13:11.396Z,3.08
2023-03-07T17:16:00.716Z,2.70
2023-03-07T17:18:50.226Z,2.30
2023-03-07T17:21:39.565Z,2.33
2023-03-07T17:24:30.547Z,2.72
2023-03-07T17:27:20.611Z,2.72
2023-03-07T17:30:13.417Z,2.40
2023-03-07T17:33:03.202Z,2.28
2023-03-07T17:35:52.844Z,2.45
2023-03-07T17:38:42.488Z,2.30
2023-03-07T17:41:32.178Z,2.20
2023-03-07T17:44:21.511Z,2.50
2023-03-07T17:47:10.852Z,2.45
2023-03-07T17:50:00.502Z,2.28
2023-03-07T17:52:53.932Z,2.58
2023-03-07T17:55:43.157Z,2.50
2023-03-07T17:58:32.377Z,2.17
2023-03-07T18:01:21.681Z,2.25
2023-03-07T18:04:11.367Z,2.20
2023-03-07T18:07:01.601Z,2.40
2023-03-07T18:09:58.834Z,2.30
2023-03-07T18:12:56.343Z,2.30
2023-03-07T18:15:49.699Z,2.40
2023-03-07T18:18:50.564Z,2.35
2023-03-07T18:21:47.893Z,2.40
2023-03-07T18:24:37.483Z,2.22
2023-03-07T18:27:26.746Z,2.25
2023-03-07T18:30:16.519Z,2.20
2023-03-07T18:33:05.849Z,2.40
2023-03-07T18:35:55.671Z,2.30
2023-03-07T18:38:45.180Z,2.35
2023-03-07T18:41:34.601Z,2.40
2023-03-07T18:44:23.842Z,2.00
2023-03-07T18:47:13.309Z,2.30
2023-03-07T18:50:02.824Z,2.25
2023-03-07T18:52:52.103Z,2.20
2023-03-07T18:55:41.686Z,2.13
2023-03-07T18:58:31.054Z,2.25
2023-03-07T19:01:26.319Z,2.33
2023-03-07T19:04:15.524Z,2.22
2023-03-07T19:07:05.069Z,2.00
2023-03-07T19:09:54.569Z,2.35
2023-03-07T19:12:44.037Z,2.28
2023-03-07T19:15:33.674Z,2.10
2023-03-07T19:18:22.938Z,2.30
2023-03-07T19:21:17.134Z,2.10
2023-03-07T19:24:08.763Z,2.47
2023-03-07T19:26:58.753Z,2.33
2023-03-07T19:29:48.020Z,2.05
2023-03-07T19:32:37.412Z,2.30
2023-03-07T19:35:26.776Z,2.30
2023-03-07T19:38:16.020Z,2.10
2023-03-07T19:41:12.294Z,1.83
2023-03-07T19:44:02.485Z,2.58
2023-03-07T19:46:51.799Z,2.30
2023-03-07T19:49:40.992Z,1.88
2023-03-07T19:52:30.265Z,2.13
2023-03-07T19:55:19.637Z,2.40
2023-03-07T19:58:08.982Z,2.30
2023-03-07T20:00:59.191Z,2.08
2023-03-07T20:03:49.542Z,2.20
2023-03-07T20:06:40.647Z,2.20
2023-03-07T20:09:29.962Z,2.50
2023-03-07T20:12:19.298Z,2.13
2023-03-07T20:15:09.453Z,2.15
2023-03-07T20:17:59.934Z,2.42
2023-03-07T20:20:49.197Z,2.30
2023-03-07T20:23:39.520Z,2.20
2023-03-07T20:26:32.702Z,1.77
2023-03-07T20:29:21.927Z,2.00
2023-03-07T20:32:12.579Z,1.83
2023-03-07T20:35:04.468Z,2.10
2023-03-07T20:37:58.211Z,2.17
2023-03-07T20:40:47.501Z,2.15
2023-03-07T20:43:36.991Z,2.10
2023-03-07T20:46:26.620Z,1.88
2023-03-07T20:49:16.740Z,1.80
2023-03-07T20:52:06.187Z,2.13
2023-03-07T20:54:55.366Z,1.90
2023-03-07T20:57:44.663Z,2.17
2023-03-07T21:00:33.844Z,2.10
2023-03-07T21:03:23.103Z,2.15
2023-03-07T21:06:13.054Z,1.95
2023-03-07T21:09:02.783Z,2.15
2023-03-07T21:11:52.019Z,2.28
2023-03-07T21:14:41.590Z,2.22
2023-03-07T21:17:30.778Z,2.20
2023-03-07T21:20:20.108Z,2.40
2023-03-07T21:23:09.368Z,2.10
2023-03-07T21:26:05.977Z,2.03
2023-03-07T21:28:55.536Z,2.15
2023-03-07T21:31:44.914Z,2.20
2023-03-07T21:34:34.165Z,2.33
2023-03-07T21:37:23.421Z,2.20
2023-03-07T21:40:13.385Z,1.98
2023-03-07T21:43:05.586Z,2.10
2023-03-07T21:45:55.640Z,2.33
2023-03-07T21:48:44.957Z,2.13
2023-03-07T21:51:34.799Z,2.15
2023-03-07T21:54:24.016Z,2.10
2023-03-07T21:57:13.212Z,2.05
2023-03-07T22:00:02.438Z,2.38
2023-03-07T22:02:53.078Z,2.13
2023-03-07T22:05:42.616Z,2.58
2023-03-07T22:08:31.852Z,2.38
2023-03-07T22:11:21.213Z,2.13
2023-03-07T22:14:10.506Z,2.03
2023-03-07T22:16:59.891Z,1.92
2023-03-07T22:19:49.181Z,2.05
2023-03-07T22:22:38.928Z,2.10
2023-03-07T22:25:28.164Z,1.88
2023-03-07T22:28:20.269Z,2.10
2023-03-07T22:31:12.739Z,1.90
2023-03-07T22:34:02.188Z,2.10
2023-03-07T22:36:57.218Z,2.20
2023-03-07T22:39:46.496Z,2.15
2023-03-07T22:42:35.899Z,2.30
2023-03-07T22:45:25.345Z,2.05
2023-03-07T22:48:14.623Z,2.10
2023-03-07T22:51:04.357Z,1.95
2023-03-07T22:53:54.659Z,1.90
2023-03-07T22:56:43.972Z,2.10
2023-03-07T22:59:33.341Z,2.10
2023-03-07T23:02:22.601Z,2.15
2023-03-07T23:05:12.246Z,2.00
2023-03-07T23:08:02.823Z,2.70
2023-03-07T23:10:52.055Z,2.42
2023-03-07T23:13:41.694Z,2.08
2023-03-07T23:16:32.634Z,2.03
2023-03-07T23:19:21.967Z,1.95
2023-03-07T23:22:11.330Z,2.00
2023-03-07T23:25:00.562Z,2.10
2023-03-07T23:27:49.822Z,2.03
2023-03-07T23:30:42.629Z,1.90
2023-03-07T23:33:31.913Z,2.15
2023-03-07T23:36:21.169Z,2.00
2023-03-07T23:39:10.753Z,2.20
2023-03-07T23:42:00.122Z,2.25
2023-03-07T23:44:52.533Z,1.98
2023-03-07T23:47:41.883Z,2.05
2023-03-07T23:50:31.275Z,2.10
2023-03-07T23:53:20.559Z,2.08
2023-03-07T23:56:11.532Z,2.00
2023-03-07T23:59:00.864Z,1.90
